Time;durP1;ratioP1;P1;durP2;ratioP2;P2;SDS_P1;SDS_P2;PMS_P1;PMS_P2;Temp;Humidity;BMP_temperature;BMP_pressure;BME280_temperature;BME280_humidity;BME280_pressure;Samples;Min_cycle;Max_cycle;Signal;HPM_P1;HPM_P2
2022/08/26 00:01:05;;;;;;;0.00;0.00;;;;;;;;;;6225640;22;20019;-92
2022/08/26 00:03:49;;;;;;;0.00;0.00;;;;;;;;;;6199894;22;20011;-92
2022/08/26 00:06:24;;;;;;;0.32;0.32;;;;;;;;;;6225212;22;20062;-92
2022/08/26 00:09:12;;;;;;;0.00;0.00;;;;;;;;;;6235737;22;20383;-92
2022/08/26 00:11:44;;;;;;;0.00;0.00;;;;;;;;;;6225321;22;20019;-92
2022/08/26 00:14:24;;;;;;;0.10;0.10;;;;;;;;;;6227161;22;20018;-92
2022/08/26 00:16:55;;;;;;;0.10;0.10;;;;;;;;;;6225207;22;20011;-92
2022/08/26 00:19:30;;;;;;;0.00;0.00;;;;;;;;;;6226105;22;20015;-91
2022/08/26 00:21:59;;;;;;;0.00;0.00;;;;;;;;;;6225733;22;20015;-92
2022/08/26 00:24:30;;;;;;;0.00;0.00;;;;;;;;;;6225031;22;20039;-91
2022/08/26 00:26:56;;;;;;;0.00;0.00;;;;;;;;;;6225187;22;20452;-91
2022/08/26 00:29:26;;;;;;;0.00;0.00;;;;;;;;;;6224544;22;20094;-91
2022/08/26 00:32:03;;;;;;;0.00;0.00;;;;;;;;;;6225546;22;20429;-91
2022/08/26 00:34:53;;;;;;;0.08;0.08;;;;;;;;;;6276709;22;20018;-92
2022/08/26 00:37:42;;;;;;;0.00;0.00;;;;;;;;;;6224489;22;20461;-92
2022/08/26 00:40:32;;;;;;;0.00;0.00;;;;;;;;;;6226163;22;20679;-91
2022/08/26 00:42:59;;;;;;;0.00;0.00;;;;;;;;;;6225128;22;20016;-91
2022/08/26 00:45:36;;;;;;;0.00;0.00;;;;;;;;;;6225455;22;20012;-91
2022/08/26 00:48:13;;;;;;;;;;;;;;;;;;6253068;22;20015;-91
2022/08/26 00:50:47;;;;;;;0.00;0.00;;;;;;;;;;6222470;22;20025;-91
2022/08/26 00:53:23;;;;;;;0.00;0.00;;;;;;;;;;6225220;22;20019;-92
2022/08/26 00:55:59;;;;;;;0.00;0.00;;;;;;;;;;6224511;22;20051;-92
2022/08/26 00:58:26;;;;;;;0.10;0.10;;;;;;;;;;6224920;22;20469;-92
2022/08/26 01:00:53;;;;;;;0.00;0.00;;;;;;;;;;6225061;22;20023;-92
2022/08/26 01:03:22;;;;;;;0.00;0.00;;;;;;;;;;6225207;22;20011;-91
2022/08/26 01:05:48;;;;;;;0.03;0.03;;;;;;;;;;6224515;22;20015;-91
2022/08/26 01:08:14;;;;;;;0.03;0.03;;;;;;;;;;6225111;22;20023;-91
2022/08/26 01:10:40;;;;;;;0.00;0.00;;;;;;;;;;6225071;22;20015;-91
2022/08/26 01:13:10;;;;;;;0.03;0.03;;;;;;;;;;6225064;22;20019;-92
2022/08/26 01:15:40;;;;;;;0.03;0.03;;;;;;;;;;6224662;22;20019;-91
2022/08/26 01:18:07;;;;;;;0.10;0.10;;;;;;;;;;6225272;22;20019;-92
2022/08/26 01:20:45;;;;;;;0.00;0.00;;;;;;;;;;6225060;22;20517;-92
2022/08/26 01:23:11;;;;;;;0.10;0.10;;;;;;;;;;6224914;22;20022;-91
2022/08/26 01:25:46;;;;;;;0.10;0.10;;;;;;;;;;6224155;22;20012;-92
2022/08/26 01:28:20;;;;;;;0.00;0.00;;;;;;;;;;6224645;22;20392;-91
2022/08/26 01:30:47;;;;;;;0.00;0.00;;;;;;;;;;6225088;22;20097;-92
2022/08/26 01:33:16;;;;;;;0.45;0.45;;;;;;;;;;6224788;22;20019;-91
2022/08/26 01:35:43;;;;;;;0.00;0.00;;;;;;;;;;6224442;22;20030;-90
2022/08/26 01:38:10;;;;;;;0.05;0.05;;;;;;;;;;6224755;22;20019;-92
2022/08/26 01:40:37;;;;;;;0.00;0.00;;;;;;;;;;6224724;22;20042;-91
2022/08/26 01:43:05;;;;;;;0.03;0.03;;;;;;;;;;6224789;22;20022;-91
2022/08/26 01:45:32;;;;;;;0.00;0.00;;;;;;;;;;6224497;22;20013;-91
2022/08/26 01:47:59;;;;;;;0.00;0.00;;;;;;;;;;6224612;22;20106;-91
2022/08/26 01:50:30;;;;;;;0.00;0.00;;;;;;;;;;6225124;22;20020;-92
2022/08/26 01:52:57;;;;;;;0.03;0.03;;;;;;;;;;6224797;22;20050;-92
2022/08/26 01:55:23;;;;;;;0.00;0.00;;;;;;;;;;6250085;22;20027;-91
2022/08/26 01:57:51;;;;;;;0.00;0.00;;;;;;;;;;6224855;22;20019;-92
2022/08/26 02:00:18;;;;;;;0.00;0.00;;;;;;;;;;6227029;22;20488;-92
2022/08/26 02:02:46;;;;;;;0.00;0.00;;;;;;;;;;6226617;22;20074;-92
2022/08/26 02:05:15;;;;;;;0.00;0.00;;;;;;;;;;6227271;22;20023;-92
2022/08/26 02:07:42;;;;;;;0.10;0.10;;;;;;;;;;6225886;22;20024;-92
2022/08/26 02:10:09;;;;;;;0.00;0.00;;;;;;;;;;6226779;22;20016;-92
2022/08/26 02:12:35;;;;;;;0.00;0.00;;;;;;;;;;6226541;22;20453;-91
2022/08/26 02:15:03;;;;;;;0.00;0.00;;;;;;;;;;6227063;22;20016;-91
2022/08/26 02:17:32;;;;;;;0.05;0.05;;;;;;;;;;6226262;22;20011;-91
2022/08/26 02:19:58;;;;;;;0.10;0.10;;;;;;;;;;6226802;22;20019;-91
2022/08/26 02:22:25;;;;;;;0.00;0.00;;;;;;;;;;6251846;22;20043;-91
2022/08/26 02:24:59;;;;;;;0.03;0.03;;;;;;;;;;6226522;22;20038;-91
2022/08/26 02:27:27;;;;;;;0.00;0.00;;;;;;;;;;6225953;22;20026;-92
2022/08/26 02:29:55;;;;;;;0.10;0.10;;;;;;;;;;6226619;22;20434;-92
2022/08/26 02:32:22;;;;;;;0.10;0.10;;;;;;;;;;6226789;22;20468;-92
2022/08/26 02:34:48;;;;;;;0.03;0.03;;;;;;;;;;6226473;22;20043;-91
2022/08/26 02:37:14;;;;;;;0.00;0.00;;;;;;;;;;6226155;22;20015;-90
2022/08/26 02:39:41;;;;;;;0.10;0.10;;;;;;;;;;6226457;22;20015;-91
2022/08/26 02:42:07;;;;;;;0.00;0.00;;;;;;;;;;6226288;22;20441;-91
2022/08/26 02:44:33;;;;;;;0.03;0.03;;;;;;;;;;6225989;22;20012;-89
2022/08/26 02:46:59;;;;;;;0.10;0.10;;;;;;;;;;6225295;22;20012;-89
2022/08/26 02:49:26;;;;;;;0.10;0.10;;;;;;;;;;6226225;22;20027;-90
2022/08/26 02:51:52;;;;;;;0.00;0.00;;;;;;;;;;6225989;22;20095;-89
2022/08/26 02:54:22;;;;;;;0.00;0.00;;;;;;;;;;6225858;22;20022;-89
2022/08/26 02:56:50;;;;;;;0.08;0.08;;;;;;;;;;6225372;22;20015;-89
2022/08/26 02:59:16;;;;;;;0.00;0.00;;;;;;;;;;6225934;22;20476;-89
2022/08/26 03:01:48;;;;;;;0.10;0.10;;;;;;;;;;6226125;22;20464;-89
2022/08/26 03:04:14;;;;;;;0.10;0.10;;;;;;;;;;6225818;22;20094;-89
2022/08/26 03:06:40;;;;;;;0.10;0.10;;;;;;;;;;6225431;22;20007;-90
2022/08/26 03:09:06;;;;;;;0.10;0.10;;;;;;;;;;6225025;22;20027;-89
2022/08/26 03:11:33;;;;;;;0.20;0.20;;;;;;;;;;6251181;22;20327;-89
2022/08/26 03:14:00;;;;;;;0.00;0.00;;;;;;;;;;6225627;22;20019;-89
2022/08/26 03:16:26;;;;;;;0.00;0.00;;;;;;;;;;6250226;22;20016;-90
2022/08/26 03:18:52;;;;;;;0.08;0.08;;;;;;;;;;6225826;22;20058;-90
2022/08/26 03:21:19;;;;;;;0.03;0.03;;;;;;;;;;6226092;22;20022;-89
2022/08/26 03:23:46;;;;;;;0.00;0.00;;;;;;;;;;6225693;22;20012;-90
2022/08/26 03:26:13;;;;;;;0.10;0.10;;;;;;;;;;6225082;22;20011;-89
2022/08/26 03:31:24;;;;;;;0.00;0.00;;;;;;;;;;6250890;22;20024;-89
2022/08/26 03:33:50;;;;;;;0.10;0.10;;;;;;;;;;6225626;22;20384;-90
2022/08/26 03:36:16;;;;;;;0.00;0.00;;;;;;;;;;6225397;22;20019;-89
2022/08/26 03:38:42;;;;;;;0.00;0.00;;;;;;;;;;6225544;22;20023;-90
2022/08/26 03:41:09;;;;;;;0.08;0.08;;;;;;;;;;6226004;22;20015;-90
2022/08/26 03:43:35;;;;;;;0.00;0.00;;;;;;;;;;6225629;22;20077;-90
2022/08/26 03:46:06;;;;;;;0.10;0.10;;;;;;;;;;6225388;22;20011;-90
2022/08/26 03:48:32;;;;;;;0.00;0.00;;;;;;;;;;6226240;22;20023;-90
2022/08/26 03:51:13;;;;;;;0.00;0.00;;;;;;;;;;6226128;22;20074;-90
2022/08/26 03:53:39;;;;;;;0.00;0.00;;;;;;;;;;6226143;22;20049;-90
2022/08/26 03:56:06;;;;;;;0.00;0.00;;;;;;;;;;6225342;22;20103;-89
2022/08/26 03:58:32;;;;;;;0.00;0.00;;;;;;;;;;6225370;22;20020;-90
2022/08/26 04:00:58;;;;;;;0.10;0.10;;;;;;;;;;6225378;22;20068;-89
2022/08/26 04:06:09;;;;;;;;;;;;;;;;;;6249891;22;20016;-89
2022/08/26 04:08:35;;;;;;;0.10;0.10;;;;;;;;;;6224374;22;19934;-89
2022/08/26 04:11:01;;;;;;;0.10;0.10;;;;;;;;;;6224601;22;20059;-89
2022/08/26 04:13:28;;;;;;;0.00;0.00;;;;;;;;;;6224683;22;20156;-90
2022/08/26 04:15:54;;;;;;;0.08;0.08;;;;;;;;;;6224571;22;20019;-90
2022/08/26 04:18:20;;;;;;;0.00;0.00;;;;;;;;;;6224342;22;20012;-90
2022/08/26 04:20:48;;;;;;;0.05;0.05;;;;;;;;;;6249752;22;20442;-89
2022/08/26 04:23:14;;;;;;;0.10;0.10;;;;;;;;;;6224542;22;20015;-89
2022/08/26 04:25:40;;;;;;;0.00;0.00;;;;;;;;;;6249584;22;20019;-92
2022/08/26 04:28:06;;;;;;;0.00;0.00;;;;;;;;;;6224905;22;20677;-90
2022/08/26 04:30:32;;;;;;;0.10;0.10;;;;;;;;;;6224846;22;20015;-90
2022/08/26 04:32:58;;;;;;;0.05;0.05;;;;;;;;;;6224833;22;20070;-90
2022/08/26 04:35:24;;;;;;;0.00;0.00;;;;;;;;;;6249690;22;20026;-90
2022/08/26 04:37:50;;;;;;;0.03;0.03;;;;;;;;;;6224697;22;20069;-88
2022/08/26 04:40:18;;;;;;;0.10;0.10;;;;;;;;;;6224673;22;20406;-89
2022/08/26 04:42:44;;;;;;;0.10;0.10;;;;;;;;;;6224574;22;20051;-90
2022/08/26 04:45:10;;;;;;;0.00;0.00;;;;;;;;;;6224613;22;20034;-91
2022/08/26 04:47:36;;;;;;;0.00;0.00;;;;;;;;;;6224163;22;20019;-90
2022/08/26 04:50:02;;;;;;;0.10;0.10;;;;;;;;;;6224885;22;20022;-90
2022/08/26 04:52:28;;;;;;;0.00;0.00;;;;;;;;;;6224607;22;20069;-90
2022/08/26 04:54:54;;;;;;;0.10;0.10;;;;;;;;;;6224823;22;20472;-90
2022/08/26 04:57:22;;;;;;;0.00;0.00;;;;;;;;;;6224611;22;20022;-90
2022/08/26 04:59:48;;;;;;;0.10;0.10;;;;;;;;;;6224483;22;20016;-90
2022/08/26 05:02:14;;;;;;;0.00;0.00;;;;;;;;;;6250174;22;20512;-91
2022/08/26 05:04:42;;;;;;;0.00;0.00;;;;;;;;;;6224801;22;20016;-90
2022/08/26 05:07:09;;;;;;;0.10;0.10;;;;;;;;;;6224157;22;20015;-90
2022/08/26 05:09:35;;;;;;;0.00;0.00;;;;;;;;;;6224451;22;20438;-91
2022/08/26 05:12:01;;;;;;;0.00;0.00;;;;;;;;;;6224505;22;20016;-90
2022/08/26 05:14:27;;;;;;;0.00;0.00;;;;;;;;;;6224349;22;20019;-90
2022/08/26 05:16:54;;;;;;;0.00;0.00;;;;;;;;;;6224054;22;20345;-90
2022/08/26 05:19:20;;;;;;;0.10;0.10;;;;;;;;;;6249555;22;20442;-90
2022/08/26 05:21:47;;;;;;;0.00;0.00;;;;;;;;;;6224492;22;20076;-90
2022/08/26 05:24:31;;;;;;;0.00;0.00;;;;;;;;;;6224193;22;20016;-90
2022/08/26 05:26:57;;;;;;;0.10;0.10;;;;;;;;;;6224013;22;20033;-90
2022/08/26 05:29:23;;;;;;;0.00;0.00;;;;;;;;;;6224112;22;20635;-90
2022/08/26 05:31:50;;;;;;;0.10;0.10;;;;;;;;;;6224355;22;20020;-90
2022/08/26 05:34:16;;;;;;;0.00;0.00;;;;;;;;;;6224233;22;20016;-91
2022/08/26 05:36:43;;;;;;;0.10;0.10;;;;;;;;;;6223557;22;20028;-90
2022/08/26 05:39:09;;;;;;;0.00;0.00;;;;;;;;;;6224462;22;20390;-90
2022/08/26 05:41:37;;;;;;;0.10;0.10;;;;;;;;;;6224125;22;20429;-91
2022/08/26 05:44:04;;;;;;;0.00;0.00;;;;;;;;;;6224120;22;20015;-90
2022/08/26 05:46:31;;;;;;;0.00;0.00;;;;;;;;;;6223740;22;20034;-90
2022/08/26 05:48:58;;;;;;;0.00;0.00;;;;;;;;;;6224784;22;20019;-91
2022/08/26 05:51:25;;;;;;;0.05;0.05;;;;;;;;;;6224434;22;20110;-91
2022/08/26 05:53:51;;;;;;;0.05;0.05;;;;;;;;;;6224224;22;20020;-92
2022/08/26 05:56:18;;;;;;;0.10;0.10;;;;;;;;;;6224256;22;20015;-91
2022/08/26 05:58:45;;;;;;;0.00;0.00;;;;;;;;;;6224267;22;20438;-91
2022/08/26 06:01:16;;;;;;;0.05;0.05;;;;;;;;;;6224925;22;20023;-91
2022/08/26 06:03:45;;;;;;;0.00;0.00;;;;;;;;;;6224352;22;20012;-91
2022/08/26 06:06:18;;;;;;;0.00;0.00;;;;;;;;;;6249510;22;20018;-91
2022/08/26 06:08:45;;;;;;;0.10;0.10;;;;;;;;;;6224298;22;20043;-91
2022/08/26 06:11:12;;;;;;;0.00;0.00;;;;;;;;;;6224241;22;20517;-90
2022/08/26 06:13:39;;;;;;;0.08;0.08;;;;;;;;;;6224523;22;20015;-91
2022/08/26 06:16:07;;;;;;;0.10;0.10;;;;;;;;;;6223885;22;20349;-91
2022/08/26 06:18:35;;;;;;;0.00;0.00;;;;;;;;;;6224250;22;20023;-91
2022/08/26 06:21:30;;;;;;;0.00;0.00;;;;;;;;;;6224584;22;20507;-91
2022/08/26 06:26:42;;;;;;;0.10;0.10;;;;;;;;;;6248759;22;19911;-91
2022/08/26 06:29:08;;;;;;;0.03;0.03;;;;;;;;;;6223983;22;20016;-91
2022/08/26 06:31:35;;;;;;;0.00;0.00;;;;;;;;;;6224161;22;20018;-91
2022/08/26 06:34:02;;;;;;;0.00;0.00;;;;;;;;;;6224376;22;20086;-91
2022/08/26 06:36:29;;;;;;;0.03;0.03;;;;;;;;;;6223501;22;20018;-91
2022/08/26 06:38:58;;;;;;;0.00;0.00;;;;;;;;;;6224130;22;20043;-91
2022/08/26 06:41:24;;;;;;;0.10;0.10;;;;;;;;;;6224299;22;20159;-90
2022/08/26 06:43:51;;;;;;;0.00;0.00;;;;;;;;;;6224202;22;20047;-90
2022/08/26 06:46:18;;;;;;;0.03;0.03;;;;;;;;;;6250361;22;20012;-90
2022/08/26 06:48:45;;;;;;;0.00;0.00;;;;;;;;;;6225979;22;20041;-91
2022/08/26 06:51:13;;;;;;;0.10;0.10;;;;;;;;;;6225779;22;20019;-91
2022/08/26 06:53:40;;;;;;;0.10;0.10;;;;;;;;;;6225784;22;20020;-91
2022/08/26 06:56:07;;;;;;;0.00;0.00;;;;;;;;;;6225718;22;20020;-90
2022/08/26 06:58:34;;;;;;;0.10;0.10;;;;;;;;;;6225740;22;20055;-91
2022/08/26 07:01:00;;;;;;;0.00;0.00;;;;;;;;;;6225653;22;20015;-91
2022/08/26 07:03:26;;;;;;;0.10;0.10;;;;;;;;;;6226167;22;20094;-91
2022/08/26 07:05:52;;;;;;;0.10;0.10;;;;;;;;;;6225599;22;20016;-91
2022/08/26 07:08:19;;;;;;;0.10;0.10;;;;;;;;;;6225501;22;20015;-90
2022/08/26 07:10:45;;;;;;;0.00;0.00;;;;;;;;;;6225324;22;20023;-91
2022/08/26 07:13:11;;;;;;;0.00;0.00;;;;;;;;;;6226371;22;20022;-91
2022/08/26 07:15:41;;;;;;;0.08;0.08;;;;;;;;;;6224723;22;20023;-90
2022/08/26 07:18:08;;;;;;;0.00;0.00;;;;;;;;;;6225422;22;20350;-91
2022/08/26 07:20:39;;;;;;;0.10;0.10;;;;;;;;;;6226006;22;20024;-90
2022/08/26 07:23:05;;;;;;;0.25;0.25;;;;;;;;;;6225583;22;20051;-90
2022/08/26 07:25:31;;;;;;;0.00;0.00;;;;;;;;;;6224717;22;20015;-90
2022/08/26 07:27:57;;;;;;;0.00;0.00;;;;;;;;;;6225341;22;20058;-90
2022/08/26 07:30:24;;;;;;;0.00;0.00;;;;;;;;;;6225280;22;20047;-90
2022/08/26 07:32:50;;;;;;;0.10;0.10;;;;;;;;;;6225500;22;20008;-90
2022/08/26 07:35:16;;;;;;;0.10;0.10;;;;;;;;;;6225274;22;20023;-90
2022/08/26 07:37:42;;;;;;;0.05;0.05;;;;;;;;;;6224664;22;20034;-90
2022/08/26 07:40:09;;;;;;;0.10;0.10;;;;;;;;;;6225822;22;20012;-90
2022/08/26 07:42:35;;;;;;;0.00;0.00;;;;;;;;;;6225157;22;20015;-90
2022/08/26 07:45:01;;;;;;;0.00;0.00;;;;;;;;;;6225805;22;20020;-90
2022/08/26 07:47:27;;;;;;;0.10;0.10;;;;;;;;;;6225391;22;20022;-90
2022/08/26 07:49:54;;;;;;;0.00;0.00;;;;;;;;;;6225291;22;20377;-90
2022/08/26 07:52:20;;;;;;;0.00;0.00;;;;;;;;;;6225213;22;20019;-91
2022/08/26 07:54:46;;;;;;;0.00;0.00;;;;;;;;;;6225480;22;20026;-90
2022/08/26 07:57:12;;;;;;;0.00;0.00;;;;;;;;;;6224271;22;20051;-91
2022/08/26 07:59:38;;;;;;;0.08;0.08;;;;;;;;;;6224798;22;20346;-91
2022/08/26 08:02:04;;;;;;;0.10;0.10;;;;;;;;;;6225382;22;20046;-90
2022/08/26 08:04:30;;;;;;;0.10;0.10;;;;;;;;;;6225615;22;20012;-90
2022/08/26 08:06:56;;;;;;;0.10;0.10;;;;;;;;;;6224648;22;20106;-89
2022/08/26 08:09:22;;;;;;;0.03;0.03;;;;;;;;;;6224989;22;20532;-90
2022/08/26 08:11:49;;;;;;;0.10;0.10;;;;;;;;;;6224824;22;20016;-90
2022/08/26 08:14:15;;;;;;;0.00;0.00;;;;;;;;;;6224986;22;20698;-90
2022/08/26 08:16:41;;;;;;;0.08;0.08;;;;;;;;;;6224909;22;20020;-90
2022/08/26 08:19:08;;;;;;;0.10;0.10;;;;;;;;;;6225655;22;20042;-89
2022/08/26 08:21:34;;;;;;;0.00;0.00;;;;;;;;;;6224609;22;20045;-90
2022/08/26 08:24:00;;;;;;;0.00;0.00;;;;;;;;;;6225061;22;20016;-90
2022/08/26 08:26:26;;;;;;;0.03;0.03;;;;;;;;;;6223890;22;20018;-90
2022/08/26 08:28:54;;;;;;;0.00;0.00;;;;;;;;;;6225001;22;20085;-90
2022/08/26 08:31:22;;;;;;;0.00;0.00;;;;;;;;;;6224541;22;20074;-90
2022/08/26 08:33:48;;;;;;;0.00;0.00;;;;;;;;;;6224556;22;20023;-89
2022/08/26 08:36:15;;;;;;;0.00;0.00;;;;;;;;;;6223992;22;20509;-90
2022/08/26 08:38:42;;;;;;;0.00;0.00;;;;;;;;;;6224859;22;20011;-89
2022/08/26 08:41:18;;;;;;;0.10;0.10;;;;;;;;;;6224598;22;20019;-90
2022/08/26 08:43:46;;;;;;;0.10;0.10;;;;;;;;;;6224107;22;20023;-89
2022/08/26 08:46:14;;;;;;;0.10;0.10;;;;;;;;;;6224166;22;20047;-90
2022/08/26 08:48:45;;;;;;;0.00;0.00;;;;;;;;;;6224438;22;20441;-90
2022/08/26 08:51:18;;;;;;;0.00;0.00;;;;;;;;;;6225036;22;20019;-90
2022/08/26 08:53:45;;;;;;;0.00;0.00;;;;;;;;;;6224561;22;20607;-90
2022/08/26 08:56:26;;;;;;;0.00;0.00;;;;;;;;;;6223989;22;20102;-90
2022/08/26 08:58:52;;;;;;;0.00;0.00;;;;;;;;;;6224650;22;20346;-90
2022/08/26 09:01:29;;;;;;;0.00;0.00;;;;;;;;;;6224513;22;20016;-89
2022/08/26 09:04:22;;;;;;;0.10;0.10;;;;;;;;;;6224290;22;20453;-90
2022/08/26 09:06:49;;;;;;;0.03;0.03;;;;;;;;;;6224125;22;20016;-89
2022/08/26 09:09:39;;;;;;;0.10;0.10;;;;;;;;;;6224331;22;20339;-89
2022/08/26 09:12:08;;;;;;;0.03;0.03;;;;;;;;;;6205649;22;20059;-89
2022/08/26 09:14:35;;;;;;;0.00;0.00;;;;;;;;;;6224161;22;20946;-89
2022/08/26 09:17:04;;;;;;;0.00;0.00;;;;;;;;;;6223907;22;20154;-90
2022/08/26 09:19:38;;;;;;;0.00;0.00;;;;;;;;;;6224110;22;20020;-90
2022/08/26 09:22:04;;;;;;;0.00;0.00;;;;;;;;;;6225061;22;20062;-90
2022/08/26 09:24:33;;;;;;;0.00;0.00;;;;;;;;;;6224594;22;20035;-90
2022/08/26 09:27:00;;;;;;;0.10;0.10;;;;;;;;;;6224215;22;20023;-90
2022/08/26 09:29:27;;;;;;;0.00;0.00;;;;;;;;;;6224057;22;20513;-89
2022/08/26 09:32:14;;;;;;;0.00;0.00;;;;;;;;;;6224317;22;20016;-90
2022/08/26 09:34:52;;;;;;;0.08;0.08;;;;;;;;;;6224474;22;20016;-89
2022/08/26 09:37:32;;;;;;;0.00;0.00;;;;;;;;;;6224019;22;20016;-89
2022/08/26 09:40:11;;;;;;;0.00;0.00;;;;;;;;;;6224234;22;20026;-90
2022/08/26 09:42:37;;;;;;;0.00;0.00;;;;;;;;;;6224405;22;20042;-90
2022/08/26 09:45:07;;;;;;;0.10;0.10;;;;;;;;;;6224489;22;20016;-90
2022/08/26 09:47:52;;;;;;;0.10;0.10;;;;;;;;;;6224086;22;20508;-90
2022/08/26 09:50:21;;;;;;;0.08;0.08;;;;;;;;;;6224535;22;20051;-91
2022/08/26 09:53:02;;;;;;;0.17;0.17;;;;;;;;;;6224235;22;20472;-90
2022/08/26 09:55:47;;;;;;;0.10;0.10;;;;;;;;;;6223429;22;20425;-93
2022/08/26 09:58:33;;;;;;;0.03;0.03;;;;;;;;;;6224026;22;20027;-89
2022/08/26 10:01:00;;;;;;;0.00;0.00;;;;;;;;;;6224051;22;20017;-90
2022/08/26 10:06:37;;;;;;;0.00;0.00;;;;;;;;;;6249046;22;20357;-91
2022/08/26 10:09:03;;;;;;;0.00;0.00;;;;;;;;;;6224122;22;20016;-90
2022/08/26 10:11:51;;;;;;;0.00;0.00;;;;;;;;;;6224042;22;20020;-91
2022/08/26 10:14:20;;;;;;;0.00;0.00;;;;;;;;;;6224319;22;20023;-91
2022/08/26 10:16:46;;;;;;;0.00;0.00;;;;;;;;;;6223512;22;20025;-90
2022/08/26 10:19:14;;;;;;;0.05;0.05;;;;;;;;;;6225271;22;20099;-91
2022/08/26 10:21:48;;;;;;;0.00;0.00;;;;;;;;;;6226631;22;20011;-91
2022/08/26 10:24:17;;;;;;;0.00;0.00;;;;;;;;;;6226045;22;20041;-90
2022/08/26 10:26:56;;;;;;;0.00;0.00;;;;;;;;;;6225206;22;20012;-90
2022/08/26 10:29:29;;;;;;;0.00;0.00;;;;;;;;;;6250584;22;20026;-91
2022/08/26 10:31:59;;;;;;;0.00;0.00;;;;;;;;;;6226321;22;20041;-91
2022/08/26 10:34:25;;;;;;;0.00;0.00;;;;;;;;;;6225815;22;20024;-91
2022/08/26 10:37:01;;;;;;;0.10;0.10;;;;;;;;;;6225777;22;20058;-90
2022/08/26 10:39:33;;;;;;;0.00;0.00;;;;;;;;;;6224159;22;20015;-94
2022/08/26 10:42:02;;;;;;;0.00;0.00;;;;;;;;;;6251210;22;20408;-91
2022/08/26 10:44:32;;;;;;;0.00;0.00;;;;;;;;;;6225550;22;20042;-92
2022/08/26 10:47:01;;;;;;;0.00;0.00;;;;;;;;;;6225185;22;20011;-91
2022/08/26 10:49:27;;;;;;;0.00;0.00;;;;;;;;;;6224995;22;20103;-90
2022/08/26 10:51:53;;;;;;;0.00;0.00;;;;;;;;;;6225776;22;20367;-90
2022/08/26 10:54:31;;;;;;;0.10;0.10;;;;;;;;;;6225566;22;20016;-90
2022/08/26 10:56:57;;;;;;;0.00;0.00;;;;;;;;;;6225425;22;20022;-90
2022/08/26 10:59:26;;;;;;;0.10;0.10;;;;;;;;;;6224333;22;20069;-91
2022/08/26 11:01:57;;;;;;;0.08;0.08;;;;;;;;;;6225670;22;20065;-91
2022/08/26 11:04:23;;;;;;;0.00;0.00;;;;;;;;;;6225260;22;20094;-91
2022/08/26 11:07:09;;;;;;;0.00;0.00;;;;;;;;;;6224971;22;20015;-91
2022/08/26 11:09:46;;;;;;;0.00;0.00;;;;;;;;;;6225247;22;20563;-91
2022/08/26 11:12:31;;;;;;;0.00;0.00;;;;;;;;;;6250790;22;20350;-91
2022/08/26 11:14:57;;;;;;;0.00;0.00;;;;;;;;;;6225737;22;20095;-91
2022/08/26 11:17:41;;;;;;;0.00;0.00;;;;;;;;;;6224916;22;20525;-90
2022/08/26 11:20:07;;;;;;;0.00;0.00;;;;;;;;;;6224847;22;20016;-89
2022/08/26 11:22:37;;;;;;;0.05;0.05;;;;;;;;;;6225394;22;20038;-89
2022/08/26 11:25:07;;;;;;;0.00;0.00;;;;;;;;;;6225269;22;20016;-90
2022/08/26 11:27:37;;;;;;;0.00;0.00;;;;;;;;;;6224676;22;20018;-90
2022/08/26 11:30:12;;;;;;;0.00;0.00;;;;;;;;;;6224970;22;20361;-89
2022/08/26 11:32:38;;;;;;;0.05;0.05;;;;;;;;;;6250871;22;20549;-90
2022/08/26 11:35:12;;;;;;;0.05;0.05;;;;;;;;;;6225244;22;20020;-90
2022/08/26 11:37:38;;;;;;;0.00;0.00;;;;;;;;;;6224475;22;20020;-89
2022/08/26 11:40:16;;;;;;;0.10;0.10;;;;;;;;;;6224869;22;20397;-89
2022/08/26 11:42:56;;;;;;;0.00;0.00;;;;;;;;;;6224917;22;20135;-89
2022/08/26 11:45:25;;;;;;;0.10;0.10;;;;;;;;;;6224579;22;20011;-89
2022/08/26 11:47:52;;;;;;;0.00;0.00;;;;;;;;;;6250238;22;20434;-89
2022/08/26 11:50:24;;;;;;;0.00;0.00;;;;;;;;;;6224569;22;20118;-88
2022/08/26 11:53:00;;;;;;;0.00;0.00;;;;;;;;;;6224486;22;20050;-87
2022/08/26 11:55:27;;;;;;;0.03;0.03;;;;;;;;;;6224243;22;20399;-88
2022/08/26 11:57:54;;;;;;;0.10;0.10;;;;;;;;;;6224438;22;20502;-88
2022/08/26 12:00:22;;;;;;;0.10;0.10;;;;;;;;;;6224680;22;20030;-88
2022/08/26 12:02:48;;;;;;;0.10;0.10;;;;;;;;;;6224329;22;20016;-88
2022/08/26 12:05:18;;;;;;;0.00;0.00;;;;;;;;;;6224396;22;20043;-88
2022/08/26 12:07:48;;;;;;;0.00;0.00;;;;;;;;;;6249091;22;20023;-88
2022/08/26 12:10:24;;;;;;;0.00;0.00;;;;;;;;;;6224545;22;20384;-90
2022/08/26 12:12:55;;;;;;;0.00;0.00;;;;;;;;;;6225104;22;20015;-89
2022/08/26 12:15:21;;;;;;;0.00;0.00;;;;;;;;;;6224346;22;20015;-89
2022/08/26 12:18:17;;;;;;;0.00;0.00;;;;;;;;;;6224758;22;20437;-89
2022/08/26 12:20:47;;;;;;;0.10;0.10;;;;;;;;;;6224685;22;20020;-89
2022/08/26 12:23:22;;;;;;;0.00;0.00;;;;;;;;;;6224394;22;20350;-89
2022/08/26 12:25:51;;;;;;;0.10;0.10;;;;;;;;;;6224156;22;20015;-88
2022/08/26 12:28:20;;;;;;;0.00;0.00;;;;;;;;;;6224682;22;20610;-89
2022/08/26 12:31:05;;;;;;;0.00;0.00;;;;;;;;;;6224246;22;20011;-90
2022/08/26 12:33:32;;;;;;;;;;;;;;;;;;6224657;22;20069;-89
2022/08/26 12:35:59;;;;;;;0.00;0.00;;;;;;;;;;6248961;22;19915;-88
2022/08/26 12:38:26;;;;;;;0.10;0.10;;;;;;;;;;6224315;22;20027;-89
2022/08/26 12:40:52;;;;;;;0.00;0.00;;;;;;;;;;6224619;22;20016;-89
2022/08/26 12:43:38;;;;;;;0.00;0.00;;;;;;;;;;6224096;22;20015;-91
2022/08/26 12:46:04;;;;;;;0.00;0.00;;;;;;;;;;6225389;22;20015;-90
2022/08/26 12:48:32;;;;;;;0.10;0.10;;;;;;;;;;6224790;22;20045;-88
2022/08/26 12:50:59;;;;;;;0.00;0.00;;;;;;;;;;6223954;22;20039;-88
2022/08/26 12:53:27;;;;;;;0.00;0.00;;;;;;;;;;6224129;22;20020;-88
2022/08/26 12:55:53;;;;;;;0.00;0.00;;;;;;;;;;6223723;22;20027;-89
2022/08/26 12:58:28;;;;;;;0.00;0.00;;;;;;;;;;6224009;22;20020;-89
2022/08/26 13:00:57;;;;;;;0.10;0.10;;;;;;;;;;6223584;22;20520;-88
2022/08/26 13:03:28;;;;;;;0.08;0.08;;;;;;;;;;6223912;22;20016;-89
2022/08/26 13:06:07;;;;;;;0.10;0.10;;;;;;;;;;6223593;22;20034;-89
2022/08/26 13:08:34;;;;;;;0.00;0.00;;;;;;;;;;6224326;22;20112;-89
2022/08/26 13:11:20;;;;;;;0.08;0.08;;;;;;;;;;6224168;22;20027;-89
2022/08/26 13:14:00;;;;;;;0.10;0.10;;;;;;;;;;6224378;22;20024;-89
2022/08/26 13:16:26;;;;;;;0.00;0.00;;;;;;;;;;6223740;22;20105;-89
2022/08/26 13:18:57;;;;;;;0.00;0.00;;;;;;;;;;6249432;22;20023;-89
2022/08/26 13:21:43;;;;;;;0.00;0.00;;;;;;;;;;6224074;22;20012;-88
2022/08/26 13:24:13;;;;;;;0.03;0.03;;;;;;;;;;6249221;22;20404;-88
2022/08/26 13:26:40;;;;;;;0.10;0.10;;;;;;;;;;6223490;22;20015;-88
2022/08/26 13:29:06;;;;;;;0.00;0.00;;;;;;;;;;6249831;22;20051;-90
2022/08/26 13:31:34;;;;;;;0.00;0.00;;;;;;;;;;6223726;22;20099;-89
2022/08/26 13:34:00;;;;;;;0.00;0.00;;;;;;;;;;6223818;22;20015;-89
2022/08/26 13:36:26;;;;;;;0.13;0.13;;;;;;;;;;6223801;22;20020;-89
2022/08/26 13:38:52;;;;;;;0.10;0.10;;;;;;;;;;6224020;22;20471;-89
2022/08/26 13:41:19;;;;;;;0.03;0.03;;;;;;;;;;6223819;22;20066;-90
2022/08/26 13:43:51;;;;;;;0.00;0.00;;;;;;;;;;6224117;22;20020;-89
2022/08/26 13:46:19;;;;;;;0.10;0.10;;;;;;;;;;6223786;22;20041;-89
2022/08/26 13:48:45;;;;;;;0.03;0.03;;;;;;;;;;6224029;22;20023;-90
2022/08/26 13:51:11;;;;;;;0.00;0.00;;;;;;;;;;6223908;22;20055;-90
2022/08/26 13:53:41;;;;;;;0.10;0.10;;;;;;;;;;6224197;22;20438;-89
2022/08/26 13:56:07;;;;;;;0.08;0.08;;;;;;;;;;6225538;22;20065;-89
2022/08/26 13:58:33;;;;;;;0.00;0.00;;;;;;;;;;6226025;22;20015;-89
2022/08/26 14:01:00;;;;;;;0.10;0.10;;;;;;;;;;6225946;22;20046;-90
2022/08/26 14:03:27;;;;;;;0.00;0.00;;;;;;;;;;6225885;22;20015;-89
2022/08/26 14:05:53;;;;;;;0.10;0.10;;;;;;;;;;6225457;22;20016;-90
2022/08/26 14:08:20;;;;;;;0.10;0.10;;;;;;;;;;6226105;22;20054;-90
2022/08/26 14:10:46;;;;;;;0.00;0.00;;;;;;;;;;6225753;22;20023;-89
2022/08/26 14:13:13;;;;;;;0.00;0.00;;;;;;;;;;6225826;22;20346;-90
2022/08/26 14:15:39;;;;;;;0.10;0.10;;;;;;;;;;6225387;22;20023;-89
2022/08/26 14:18:07;;;;;;;0.00;0.00;;;;;;;;;;6225589;22;20024;-89
2022/08/26 14:20:33;;;;;;;0.10;0.10;;;;;;;;;;6225401;22;20102;-89
2022/08/26 14:22:59;;;;;;;0.10;0.10;;;;;;;;;;6225417;22;20016;-89
2022/08/26 14:25:25;;;;;;;0.10;0.10;;;;;;;;;;6225146;22;20020;-90
2022/08/26 14:28:03;;;;;;;0.08;0.08;;;;;;;;;;6225700;22;20016;-89
2022/08/26 14:30:51;;;;;;;0.10;0.10;;;;;;;;;;6226032;22;20016;-91
2022/08/26 14:33:31;;;;;;;0.10;0.10;;;;;;;;;;6225598;22;20023;-88
2022/08/26 14:36:26;;;;;;;0.00;0.00;;;;;;;;;;6225611;22;20035;-90
2022/08/26 14:38:52;;;;;;;0.00;0.00;;;;;;;;;;6250938;22;20020;-90
2022/08/26 14:41:19;;;;;;;0.00;0.00;;;;;;;;;;6226002;22;20381;-90
2022/08/26 14:43:48;;;;;;;0.10;0.10;;;;;;;;;;6225079;22;20019;-88
2022/08/26 14:46:15;;;;;;;0.10;0.10;;;;;;;;;;6224456;22;20353;-88
2022/08/26 14:48:41;;;;;;;0.00;0.00;;;;;;;;;;6225410;22;20015;-88
2022/08/26 14:51:07;;;;;;;0.10;0.10;;;;;;;;;;6225046;22;20515;-87
2022/08/26 14:56:32;;;;;;;0.08;0.08;;;;;;;;;;6182580;22;20458;-87
2022/08/26 14:58:58;;;;;;;0.00;0.00;;;;;;;;;;6223519;22;20023;-87
2022/08/26 15:01:24;;;;;;;0.00;0.00;;;;;;;;;;6224151;22;20023;-87
2022/08/26 15:03:51;;;;;;;0.00;0.00;;;;;;;;;;6248798;22;20026;-87
2022/08/26 15:06:17;;;;;;;0.00;0.00;;;;;;;;;;6223653;22;20345;-88
2022/08/26 15:08:44;;;;;;;0.08;0.08;;;;;;;;;;6224736;22;20407;-87
2022/08/26 15:11:10;;;;;;;0.00;0.00;;;;;;;;;;6224591;22;20030;-89